sensor_id;sensor_type;location;lat;lon;timestamp;P1;durP1;ratioP1;P2;durP2;ratioP2
14015;SDS011;7083;48.854;9.158;2023-08-06T00:00:19;9.50;;;8.60;;
14015;SDS011;7083;48.854;9.158;2023-08-06T00:02:46;11.73;;;9.57;;
14015;SDS011;7083;48.854;9.158;2023-08-06T00:05:14;10.63;;;9.50;;
14015;SDS011;7083;48.854;9.158;2023-08-06T00:07:42;10.57;;;9.67;;
14015;SDS011;7083;48.854;9.158;2023-08-06T00:10:11;12.37;;;8.73;;
14015;SDS011;7083;48.854;9.158;2023-08-06T00:12:37;11.70;;;10.50;;
14015;SDS011;7083;48.854;9.158;2023-08-06T00:15:04;10.57;;;9.67;;
14015;SDS011;7083;48.854;9.158;2023-08-06T00:17:33;13.03;;;10.77;;
14015;SDS011;7083;48.854;9.158;2023-08-06T00:19:59;13.23;;;11.90;;
14015;SDS011;7083;48.854;9.158;2023-08-06T00:22:29;10.63;;;9.53;;
14015;SDS011;7083;48.854;9.158;2023-08-06T00:24:56;10.93;;;9.47;;
14015;SDS011;7083;48.854;9.158;2023-08-06T00:27:24;14.03;;;10.47;;
14015;SDS011;7083;48.854;9.158;2023-08-06T00:29:51;11.17;;;9.23;;
14015;SDS011;7083;48.854;9.158;2023-08-06T00:32:18;11.53;;;10.37;;
14015;SDS011;7083;48.854;9.158;2023-08-06T00:34:44;10.93;;;9.53;;
14015;SDS011;7083;48.854;9.158;2023-08-06T00:37:11;11.33;;;9.60;;
14015;SDS011;7083;48.854;9.158;2023-08-06T00:39:38;11.23;;;10.17;;
14015;SDS011;7083;48.854;9.158;2023-08-06T00:42:05;13.00;;;11.23;;
14015;SDS011;7083;48.854;9.158;2023-08-06T00:44:33;11.10;;;9.93;;
14015;SDS011;7083;48.854;9.158;2023-08-06T00:46:59;10.10;;;9.20;;
14015;SDS011;7083;48.854;9.158;2023-08-06T00:49:27;8.90;;;8.20;;
14015;SDS011;7083;48.854;9.158;2023-08-06T00:51:54;8.83;;;8.00;;
14015;SDS011;7083;48.854;9.158;2023-08-06T00:54:22;8.17;;;7.47;;
14015;SDS011;7083;48.854;9.158;2023-08-06T00:56:50;7.23;;;6.57;;
14015;SDS011;7083;48.854;9.158;2023-08-06T00:59:17;7.47;;;6.80;;
14015;SDS011;7083;48.854;9.158;2023-08-06T01:01:46;8.13;;;6.73;;
14015;SDS011;7083;48.854;9.158;2023-08-06T01:04:15;8.00;;;7.30;;
14015;SDS011;7083;48.854;9.158;2023-08-06T01:06:43;7.20;;;6.67;;
14015;SDS011;7083;48.854;9.158;2023-08-06T01:09:17;6.77;;;6.27;;
14015;SDS011;7083;48.854;9.158;2023-08-06T01:11:54;6.47;;;5.93;;
14015;SDS011;7083;48.854;9.158;2023-08-06T01:14:28;7.50;;;6.80;;
14015;SDS011;7083;48.854;9.158;2023-08-06T01:17:07;6.90;;;6.40;;
14015;SDS011;7083;48.854;9.158;2023-08-06T01:19:35;6.50;;;5.90;;
14015;SDS011;7083;48.854;9.158;2023-08-06T01:22:04;6.40;;;5.97;;
14015;SDS011;7083;48.854;9.158;2023-08-06T01:24:31;6.33;;;5.80;;
14015;SDS011;7083;48.854;9.158;2023-08-06T01:26:59;7.50;;;6.73;;
14015;SDS011;7083;48.854;9.158;2023-08-06T01:29:34;6.07;;;5.67;;
14015;SDS011;7083;48.854;9.158;2023-08-06T01:32:05;6.60;;;6.10;;
14015;SDS011;7083;48.854;9.158;2023-08-06T01:34:32;7.83;;;6.67;;
14015;SDS011;7083;48.854;9.158;2023-08-06T01:37:00;6.53;;;6.10;;
14015;SDS011;7083;48.854;9.158;2023-08-06T01:39:30;8.83;;;6.80;;
14015;SDS011;7083;48.854;9.158;2023-08-06T01:41:59;7.13;;;6.53;;
14015;SDS011;7083;48.854;9.158;2023-08-06T01:44:26;6.97;;;6.37;;
14015;SDS011;7083;48.854;9.158;2023-08-06T01:46:53;6.97;;;6.37;;
14015;SDS011;7083;48.854;9.158;2023-08-06T01:49:19;7.20;;;6.53;;
14015;SDS011;7083;48.854;9.158;2023-08-06T01:51:46;7.40;;;6.80;;
14015;SDS011;7083;48.854;9.158;2023-08-06T01:54:13;7.17;;;6.43;;
14015;SDS011;7083;48.854;9.158;2023-08-06T01:56:41;8.03;;;6.90;;
14015;SDS011;7083;48.854;9.158;2023-08-06T01:59:08;6.37;;;5.97;;
14015;SDS011;7083;48.854;9.158;2023-08-06T02:01:34;7.67;;;7.07;;
14015;SDS011;7083;48.854;9.158;2023-08-06T02:04:01;7.20;;;6.57;;
14015;SDS011;7083;48.854;9.158;2023-08-06T02:06:28;6.77;;;6.07;;
14015;SDS011;7083;48.854;9.158;2023-08-06T02:08:55;7.43;;;6.70;;
14015;SDS011;7083;48.854;9.158;2023-08-06T02:11:22;6.97;;;6.37;;
14015;SDS011;7083;48.854;9.158;2023-08-06T02:13:50;6.93;;;6.33;;
14015;SDS011;7083;48.854;9.158;2023-08-06T02:16:16;6.93;;;6.30;;
14015;SDS011;7083;48.854;9.158;2023-08-06T02:18:43;7.67;;;6.77;;
14015;SDS011;7083;48.854;9.158;2023-08-06T02:21:10;6.57;;;5.97;;
14015;SDS011;7083;48.854;9.158;2023-08-06T02:23:36;7.13;;;6.23;;
14015;SDS011;7083;48.854;9.158;2023-08-06T02:26:03;6.43;;;5.93;;
14015;SDS011;7083;48.854;9.158;2023-08-06T02:28:30;6.50;;;6.00;;
14015;SDS011;7083;48.854;9.158;2023-08-06T02:30:59;7.60;;;6.10;;
14015;SDS011;7083;48.854;9.158;2023-08-06T02:33:26;11.57;;;5.27;;
14015;SDS011;7083;48.854;9.158;2023-08-06T02:35:58;10.00;;;6.10;;
14015;SDS011;7083;48.854;9.158;2023-08-06T02:38:25;7.63;;;5.67;;
14015;SDS011;7083;48.854;9.158;2023-08-06T02:40:52;6.30;;;5.77;;
14015;SDS011;7083;48.854;9.158;2023-08-06T02:43:18;6.77;;;5.67;;
14015;SDS011;7083;48.854;9.158;2023-08-06T02:45:45;7.67;;;5.70;;
14015;SDS011;7083;48.854;9.158;2023-08-06T02:48:13;7.53;;;5.80;;
14015;SDS011;7083;48.854;9.158;2023-08-06T02:50:40;5.83;;;5.33;;
14015;SDS011;7083;48.854;9.158;2023-08-06T02:53:07;6.90;;;5.50;;
14015;SDS011;7083;48.854;9.158;2023-08-06T02:55:35;5.87;;;5.20;;
14015;SDS011;7083;48.854;9.158;2023-08-06T02:58:02;6.63;;;5.33;;
14015;SDS011;7083;48.854;9.158;2023-08-06T03:00:28;6.67;;;5.97;;
14015;SDS011;7083;48.854;9.158;2023-08-06T03:02:55;8.40;;;5.47;;
14015;SDS011;7083;48.854;9.158;2023-08-06T03:05:23;8.17;;;5.97;;
14015;SDS011;7083;48.854;9.158;2023-08-06T03:07:50;6.03;;;5.53;;
14015;SDS011;7083;48.854;9.158;2023-08-06T03:10:16;6.43;;;5.80;;
14015;SDS011;7083;48.854;9.158;2023-08-06T03:12:44;7.33;;;5.80;;
14015;SDS011;7083;48.854;9.158;2023-08-06T03:15:11;10.80;;;6.87;;
14015;SDS011;7083;48.854;9.158;2023-08-06T03:17:38;7.90;;;6.33;;
14015;SDS011;7083;48.854;9.158;2023-08-06T03:20:05;6.40;;;5.90;;
14015;SDS011;7083;48.854;9.158;2023-08-06T03:22:34;10.00;;;7.00;;
14015;SDS011;7083;48.854;9.158;2023-08-06T03:25:00;7.93;;;7.13;;
14015;SDS011;7083;48.854;9.158;2023-08-06T03:27:27;8.03;;;6.83;;
14015;SDS011;7083;48.854;9.158;2023-08-06T03:29:54;7.27;;;6.67;;
14015;SDS011;7083;48.854;9.158;2023-08-06T03:32:21;9.73;;;7.47;;
14015;SDS011;7083;48.854;9.158;2023-08-06T03:34:47;7.50;;;6.80;;
14015;SDS011;7083;48.854;9.158;2023-08-06T03:37:14;9.13;;;7.37;;
14015;SDS011;7083;48.854;9.158;2023-08-06T03:39:42;9.60;;;7.20;;
14015;SDS011;7083;48.854;9.158;2023-08-06T03:42:09;7.70;;;7.00;;
14015;SDS011;7083;48.854;9.158;2023-08-06T03:44:35;8.33;;;7.03;;
14015;SDS011;7083;48.854;9.158;2023-08-06T03:47:02;8.83;;;7.93;;
14015;SDS011;7083;48.854;9.158;2023-08-06T03:49:29;14.43;;;6.97;;
14015;SDS011;7083;48.854;9.158;2023-08-06T03:51:56;9.10;;;7.03;;
14015;SDS011;7083;48.854;9.158;2023-08-06T03:54:23;7.77;;;7.13;;
14015;SDS011;7083;48.854;9.158;2023-08-06T03:56:51;9.93;;;7.47;;
14015;SDS011;7083;48.854;9.158;2023-08-06T03:59:17;7.13;;;6.43;;
14015;SDS011;7083;48.854;9.158;2023-08-06T04:01:44;7.63;;;7.03;;
14015;SDS011;7083;48.854;9.158;2023-08-06T04:04:11;6.37;;;5.87;;
14015;SDS011;7083;48.854;9.158;2023-08-06T04:06:37;6.87;;;6.20;;
14015;SDS011;7083;48.854;9.158;2023-08-06T04:09:04;8.63;;;6.37;;
14015;SDS011;7083;48.854;9.158;2023-08-06T04:11:31;7.93;;;6.20;;
14015;SDS011;7083;48.854;9.158;2023-08-06T04:13:59;5.67;;;5.20;;
14015;SDS011;7083;48.854;9.158;2023-08-06T04:16:25;8.83;;;5.40;;
14015;SDS011;7083;48.854;9.158;2023-08-06T04:18:52;8.13;;;5.13;;
14015;SDS011;7083;48.854;9.158;2023-08-06T04:21:20;8.13;;;5.17;;
14015;SDS011;7083;48.854;9.158;2023-08-06T04:23:47;5.67;;;5.23;;
14015;SDS011;7083;48.854;9.158;2023-08-06T04:26:14;5.50;;;5.07;;
14015;SDS011;7083;48.854;9.158;2023-08-06T04:28:40;5.57;;;4.40;;
14015;SDS011;7083;48.854;9.158;2023-08-06T04:31:08;4.87;;;4.40;;
14015;SDS011;7083;48.854;9.158;2023-08-06T04:33:35;5.30;;;4.60;;
14015;SDS011;7083;48.854;9.158;2023-08-06T04:36:02;5.17;;;4.80;;
14015;SDS011;7083;48.854;9.158;2023-08-06T04:38:29;4.67;;;4.30;;
14015;SDS011;7083;48.854;9.158;2023-08-06T04:40:55;5.57;;;4.37;;
14015;SDS011;7083;48.854;9.158;2023-08-06T04:43:22;4.13;;;3.83;;
14015;SDS011;7083;48.854;9.158;2023-08-06T04:45:49;5.43;;;4.23;;
14015;SDS011;7083;48.854;9.158;2023-08-06T04:48:19;3.97;;;3.63;;
14015;SDS011;7083;48.854;9.158;2023-08-06T04:50:46;6.30;;;4.47;;
14015;SDS011;7083;48.854;9.158;2023-08-06T04:53:14;5.07;;;4.13;;
14015;SDS011;7083;48.854;9.158;2023-08-06T04:55:41;3.50;;;3.20;;
14015;SDS011;7083;48.854;9.158;2023-08-06T04:58:08;4.67;;;4.00;;
14015;SDS011;7083;48.854;9.158;2023-08-06T05:00:36;6.37;;;3.93;;
14015;SDS011;7083;48.854;9.158;2023-08-06T05:03:02;4.40;;;4.00;;
14015;SDS011;7083;48.854;9.158;2023-08-06T05:05:31;4.77;;;4.23;;
14015;SDS011;7083;48.854;9.158;2023-08-06T05:07:57;4.50;;;4.20;;
14015;SDS011;7083;48.854;9.158;2023-08-06T05:10:24;4.97;;;4.47;;
14015;SDS011;7083;48.854;9.158;2023-08-06T05:12:51;7.57;;;4.50;;
14015;SDS011;7083;48.854;9.158;2023-08-06T05:15:18;6.97;;;4.60;;
14015;SDS011;7083;48.854;9.158;2023-08-06T05:17:44;7.90;;;4.70;;
14015;SDS011;7083;48.854;9.158;2023-08-06T05:20:11;6.70;;;3.70;;
14015;SDS011;7083;48.854;9.158;2023-08-06T05:22:39;8.10;;;3.53;;
14015;SDS011;7083;48.854;9.158;2023-08-06T05:25:06;5.33;;;4.13;;
14015;SDS011;7083;48.854;9.158;2023-08-06T05:27:33;4.33;;;3.97;;
14015;SDS011;7083;48.854;9.158;2023-08-06T05:30:00;5.27;;;4.33;;
14015;SDS011;7083;48.854;9.158;2023-08-06T05:32:26;6.27;;;4.20;;
14015;SDS011;7083;48.854;9.158;2023-08-06T05:34:53;5.63;;;4.83;;
14015;SDS011;7083;48.854;9.158;2023-08-06T05:37:20;4.80;;;4.33;;
14015;SDS011;7083;48.854;9.158;2023-08-06T05:39:48;5.97;;;4.40;;
14015;SDS011;7083;48.854;9.158;2023-08-06T05:42:15;5.47;;;4.23;;
14015;SDS011;7083;48.854;9.158;2023-08-06T05:44:42;6.33;;;4.40;;
14015;SDS011;7083;48.854;9.158;2023-08-06T05:47:08;6.93;;;3.37;;
14015;SDS011;7083;48.854;9.158;2023-08-06T05:49:35;3.73;;;3.10;;
14015;SDS011;7083;48.854;9.158;2023-08-06T05:52:02;5.83;;;3.13;;
14015;SDS011;7083;48.854;9.158;2023-08-06T05:54:31;5.37;;;3.37;;
14015;SDS011;7083;48.854;9.158;2023-08-06T05:56:59;7.60;;;3.20;;
14015;SDS011;7083;48.854;9.158;2023-08-06T05:59:25;4.60;;;2.97;;
14015;SDS011;7083;48.854;9.158;2023-08-06T06:01:52;2.77;;;2.57;;
14015;SDS011;7083;48.854;9.158;2023-08-06T06:04:19;2.83;;;2.60;;
14015;SDS011;7083;48.854;9.158;2023-08-06T06:06:46;2.80;;;2.60;;
14015;SDS011;7083;48.854;9.158;2023-08-06T06:09:13;2.63;;;2.53;;
14015;SDS011;7083;48.854;9.158;2023-08-06T06:11:40;2.60;;;1.97;;
14015;SDS011;7083;48.854;9.158;2023-08-06T06:14:08;3.13;;;2.07;;
14015;SDS011;7083;48.854;9.158;2023-08-06T06:16:34;1.87;;;1.77;;
14015;SDS011;7083;48.854;9.158;2023-08-06T06:19:01;3.57;;;1.70;;
14015;SDS011;7083;48.854;9.158;2023-08-06T06:21:28;2.20;;;1.40;;
14015;SDS011;7083;48.854;9.158;2023-08-06T06:23:54;2.33;;;1.50;;
14015;SDS011;7083;48.854;9.158;2023-08-06T06:26:21;1.50;;;1.40;;
14015;SDS011;7083;48.854;9.158;2023-08-06T06:28:48;1.60;;;1.50;;
14015;SDS011;7083;48.854;9.158;2023-08-06T06:31:16;3.03;;;1.40;;
14015;SDS011;7083;48.854;9.158;2023-08-06T06:33:43;1.57;;;1.37;;
14015;SDS011;7083;48.854;9.158;2023-08-06T06:36:09;2.27;;;1.40;;
14015;SDS011;7083;48.854;9.158;2023-08-06T06:38:36;1.40;;;1.30;;
14015;SDS011;7083;48.854;9.158;2023-08-06T06:41:03;1.37;;;1.27;;
14015;SDS011;7083;48.854;9.158;2023-08-06T06:43:30;3.87;;;1.20;;
14015;SDS011;7083;48.854;9.158;2023-08-06T06:45:57;1.17;;;1.17;;
14015;SDS011;7083;48.854;9.158;2023-08-06T06:48:26;1.87;;;1.40;;
14015;SDS011;7083;48.854;9.158;2023-08-06T06:50:53;1.70;;;1.60;;
14015;SDS011;7083;48.854;9.158;2023-08-06T06:53:20;1.80;;;1.40;;
14015;SDS011;7083;48.854;9.158;2023-08-06T06:55:52;3.63;;;1.33;;
14015;SDS011;7083;48.854;9.158;2023-08-06T06:58:18;1.87;;;1.10;;
14015;SDS011;7083;48.854;9.158;2023-08-06T07:00:45;2.90;;;1.40;;
14015;SDS011;7083;48.854;9.158;2023-08-06T07:03:12;0.83;;;0.83;;
14015;SDS011;7083;48.854;9.158;2023-08-06T07:05:40;1.27;;;1.17;;
14015;SDS011;7083;48.854;9.158;2023-08-06T07:08:08;1.27;;;1.23;;
14015;SDS011;7083;48.854;9.158;2023-08-06T07:10:34;0.97;;;0.97;;
14015;SDS011;7083;48.854;9.158;2023-08-06T07:13:01;0.83;;;0.83;;
14015;SDS011;7083;48.854;9.158;2023-08-06T07:15:28;1.30;;;1.20;;
14015;SDS011;7083;48.854;9.158;2023-08-06T07:17:54;0.80;;;0.80;;
14015;SDS011;7083;48.854;9.158;2023-08-06T07:20:21;1.60;;;1.00;;
14015;SDS011;7083;48.854;9.158;2023-08-06T07:22:49;0.93;;;0.87;;
14015;SDS011;7083;48.854;9.158;2023-08-06T07:25:16;0.90;;;0.90;;
14015;SDS011;7083;48.854;9.158;2023-08-06T07:27:43;1.23;;;1.00;;
14015;SDS011;7083;48.854;9.158;2023-08-06T07:30:10;0.80;;;0.80;;
14015;SDS011;7083;48.854;9.158;2023-08-06T07:32:37;0.73;;;0.73;;
14015;SDS011;7083;48.854;9.158;2023-08-06T07:35:04;0.80;;;0.80;;
14015;SDS011;7083;48.854;9.158;2023-08-06T07:37:33;0.80;;;0.80;;
14015;SDS011;7083;48.854;9.158;2023-08-06T07:40:01;0.80;;;0.80;;
14015;SDS011;7083;48.854;9.158;2023-08-06T07:42:28;2.20;;;1.00;;
14015;SDS011;7083;48.854;9.158;2023-08-06T07:44:55;1.10;;;1.10;;
14015;SDS011;7083;48.854;9.158;2023-08-06T07:47:24;0.83;;;0.83;;
14015;SDS011;7083;48.854;9.158;2023-08-06T07:49:51;0.93;;;0.80;;
14015;SDS011;7083;48.854;9.158;2023-08-06T07:52:18;0.90;;;0.90;;
14015;SDS011;7083;48.854;9.158;2023-08-06T07:54:45;1.07;;;1.00;;
14015;SDS011;7083;48.854;9.158;2023-08-06T07:57:13;1.63;;;0.93;;
14015;SDS011;7083;48.854;9.158;2023-08-06T07:59:40;0.80;;;0.80;;
14015;SDS011;7083;48.854;9.158;2023-08-06T08:02:07;1.00;;;1.00;;
14015;SDS011;7083;48.854;9.158;2023-08-06T08:04:34;0.80;;;0.80;;
14015;SDS011;7083;48.854;9.158;2023-08-06T08:07:00;0.80;;;0.80;;
14015;SDS011;7083;48.854;9.158;2023-08-06T08:09:27;0.90;;;0.90;;
14015;SDS011;7083;48.854;9.158;2023-08-06T08:11:54;0.93;;;0.80;;
14015;SDS011;7083;48.854;9.158;2023-08-06T08:14:22;0.80;;;0.80;;
14015;SDS011;7083;48.854;9.158;2023-08-06T08:16:49;3.37;;;0.90;;
14015;SDS011;7083;48.854;9.158;2023-08-06T08:19:40;0.83;;;0.80;;
14015;SDS011;7083;48.854;9.158;2023-08-06T08:22:11;0.60;;;0.60;;
14015;SDS011;7083;48.854;9.158;2023-08-06T08:24:38;0.70;;;0.70;;
14015;SDS011;7083;48.854;9.158;2023-08-06T08:27:07;0.60;;;0.60;;
14015;SDS011;7083;48.854;9.158;2023-08-06T08:29:35;0.60;;;0.60;;
14015;SDS011;7083;48.854;9.158;2023-08-06T08:32:01;0.50;;;0.50;;
14015;SDS011;7083;48.854;9.158;2023-08-06T08:34:28;0.50;;;0.50;;
14015;SDS011;7083;48.854;9.158;2023-08-06T08:36:55;0.67;;;0.67;;
14015;SDS011;7083;48.854;9.158;2023-08-06T08:39:22;0.60;;;0.60;;
14015;SDS011;7083;48.854;9.158;2023-08-06T08:41:48;0.60;;;0.50;;
14015;SDS011;7083;48.854;9.158;2023-08-06T08:44:15;1.10;;;1.10;;
14015;SDS011;7083;48.854;9.158;2023-08-06T08:46:45;0.50;;;0.50;;
14015;SDS011;7083;48.854;9.158;2023-08-06T08:49:13;0.60;;;0.60;;
14015;SDS011;7083;48.854;9.158;2023-08-06T08:51:40;0.40;;;0.40;;
14015;SDS011;7083;48.854;9.158;2023-08-06T08:54:07;0.70;;;0.70;;
14015;SDS011;7083;48.854;9.158;2023-08-06T08:56:34;0.50;;;0.50;;
14015;SDS011;7083;48.854;9.158;2023-08-06T08:59:01;0.50;;;0.50;;
14015;SDS011;7083;48.854;9.158;2023-08-06T09:01:28;0.60;;;0.60;;
14015;SDS011;7083;48.854;9.158;2023-08-06T09:03:56;0.70;;;0.70;;
14015;SDS011;7083;48.854;9.158;2023-08-06T09:06:25;2.23;;;0.70;;
14015;SDS011;7083;48.854;9.158;2023-08-06T09:08:56;0.50;;;0.50;;
14015;SDS011;7083;48.854;9.158;2023-08-06T09:11:28;0.60;;;0.60;;
14015;SDS011;7083;48.854;9.158;2023-08-06T09:14:04;0.50;;;0.50;;
14015;SDS011;7083;48.854;9.158;2023-08-06T09:16:32;0.50;;;0.50;;
14015;SDS011;7083;48.854;9.158;2023-08-06T09:19:07;1.30;;;0.47;;
14015;SDS011;7083;48.854;9.158;2023-08-06T09:21:37;0.60;;;0.60;;
14015;SDS011;7083;48.854;9.158;2023-08-06T09:24:07;0.53;;;0.53;;
14015;SDS011;7083;48.854;9.158;2023-08-06T09:26:35;0.40;;;0.40;;
14015;SDS011;7083;48.854;9.158;2023-08-06T09:29:04;0.40;;;0.40;;
14015;SDS011;7083;48.854;9.158;2023-08-06T09:31:32;0.50;;;0.50;;
14015;SDS011;7083;48.854;9.158;2023-08-06T09:34:00;1.10;;;0.50;;
14015;SDS011;7083;48.854;9.158;2023-08-06T09:36:28;0.50;;;0.50;;
14015;SDS011;7083;48.854;9.158;2023-08-06T09:38:55;0.50;;;0.50;;
14015;SDS011;7083;48.854;9.158;2023-08-06T09:41:26;0.50;;;0.50;;
14015;SDS011;7083;48.854;9.158;2023-08-06T09:43:54;0.50;;;0.50;;
14015;SDS011;7083;48.854;9.158;2023-08-06T09:46:20;0.50;;;0.50;;
14015;SDS011;7083;48.854;9.158;2023-08-06T09:48:47;0.50;;;0.50;;
14015;SDS011;7083;48.854;9.158;2023-08-06T09:51:16;0.50;;;0.50;;
14015;SDS011;7083;48.854;9.158;2023-08-06T09:53:44;0.50;;;0.50;;
14015;SDS011;7083;48.854;9.158;2023-08-06T09:56:13;0.67;;;0.67;;
14015;SDS011;7083;48.854;9.158;2023-08-06T09:58:41;0.50;;;0.50;;
14015;SDS011;7083;48.854;9.158;2023-08-06T10:01:08;0.90;;;0.90;;
14015;SDS011;7083;48.854;9.158;2023-08-06T10:03:36;0.57;;;0.57;;
14015;SDS011;7083;48.854;9.158;2023-08-06T10:06:04;0.90;;;0.90;;
14015;SDS011;7083;48.854;9.158;2023-08-06T10:08:33;0.50;;;0.50;;
14015;SDS011;7083;48.854;9.158;2023-08-06T10:11:02;0.60;;;0.60;;
14015;SDS011;7083;48.854;9.158;2023-08-06T10:13:30;1.27;;;0.57;;
14015;SDS011;7083;48.854;9.158;2023-08-06T10:15:59;0.70;;;0.70;;
14015;SDS011;7083;48.854;9.158;2023-08-06T10:18:26;0.87;;;0.87;;
14015;SDS011;7083;48.854;9.158;2023-08-06T10:20:53;0.60;;;0.60;;
14015;SDS011;7083;48.854;9.158;2023-08-06T10:23:20;0.50;;;0.50;;
14015;SDS011;7083;48.854;9.158;2023-08-06T10:26:01;0.60;;;0.60;;
14015;SDS011;7083;48.854;9.158;2023-08-06T10:28:33;0.70;;;0.70;;
14015;SDS011;7083;48.854;9.158;2023-08-06T10:31:01;0.50;;;0.50;;
14015;SDS011;7083;48.854;9.158;2023-08-06T10:33:39;0.57;;;0.57;;
14015;SDS011;7083;48.854;9.158;2023-08-06T10:36:08;0.60;;;0.60;;
14015;SDS011;7083;48.854;9.158;2023-08-06T10:38:36;0.47;;;0.47;;
14015;SDS011;7083;48.854;9.158;2023-08-06T10:41:16;0.60;;;0.60;;
14015;SDS011;7083;48.854;9.158;2023-08-06T10:43:47;1.37;;;1.27;;
14015;SDS011;7083;48.854;9.158;2023-08-06T10:46:26;0.50;;;0.50;;
14015;SDS011;7083;48.854;9.158;2023-08-06T10:48:53;0.43;;;0.43;;
14015;SDS011;7083;48.854;9.158;2023-08-06T10:51:20;0.50;;;0.50;;
14015;SDS011;7083;48.854;9.158;2023-08-06T10:53:47;0.50;;;0.50;;
14015;SDS011;7083;48.854;9.158;2023-08-06T10:56:17;0.50;;;0.50;;
14015;SDS011;7083;48.854;9.158;2023-08-06T10:58:44;0.50;;;0.50;;
14015;SDS011;7083;48.854;9.158;2023-08-06T11:01:12;1.60;;;0.60;;
14015;SDS011;7083;48.854;9.158;2023-08-06T11:03:40;1.40;;;1.40;;
14015;SDS011;7083;48.854;9.158;2023-08-06T11:06:07;1.43;;;0.90;;
14015;SDS011;7083;48.854;9.158;2023-08-06T11:08:35;0.87;;;0.87;;
14015;SDS011;7083;48.854;9.158;2023-08-06T11:11:08;1.00;;;1.00;;
14015;SDS011;7083;48.854;9.158;2023-08-06T11:13:39;1.00;;;1.00;;
14015;SDS011;7083;48.854;9.158;2023-08-06T11:16:06;1.27;;;1.27;;
14015;SDS011;7083;48.854;9.158;2023-08-06T11:18:33;1.20;;;1.20;;
14015;SDS011;7083;48.854;9.158;2023-08-06T11:21:00;1.10;;;1.10;;
14015;SDS011;7083;48.854;9.158;2023-08-06T11:23:27;1.13;;;1.13;;
14015;SDS011;7083;48.854;9.158;2023-08-06T11:25:54;1.00;;;1.00;;
14015;SDS011;7083;48.854;9.158;2023-08-06T11:28:22;1.23;;;1.10;;
14015;SDS011;7083;48.854;9.158;2023-08-06T11:30:50;1.90;;;1.40;;
14015;SDS011;7083;48.854;9.158;2023-08-06T11:33:19;1.10;;;1.10;;
14015;SDS011;7083;48.854;9.158;2023-08-06T11:35:47;1.23;;;1.23;;
14015;SDS011;7083;48.854;9.158;2023-08-06T11:38:14;1.30;;;1.30;;
14015;SDS011;7083;48.854;9.158;2023-08-06T11:40:43;1.50;;;1.40;;
14015;SDS011;7083;48.854;9.158;2023-08-06T11:43:10;1.30;;;1.30;;
14015;SDS011;7083;48.854;9.158;2023-08-06T11:45:37;1.80;;;1.70;;
14015;SDS011;7083;48.854;9.158;2023-08-06T11:48:05;1.70;;;1.60;;
14015;SDS011;7083;48.854;9.158;2023-08-06T11:50:35;2.10;;;1.70;;
14015;SDS011;7083;48.854;9.158;2023-08-06T11:53:03;2.10;;;2.00;;
14015;SDS011;7083;48.854;9.158;2023-08-06T11:55:30;2.50;;;2.30;;
14015;SDS011;7083;48.854;9.158;2023-08-06T11:57:58;2.40;;;1.77;;
14015;SDS011;7083;48.854;9.158;2023-08-06T12:00:28;2.03;;;1.93;;
14015;SDS011;7083;48.854;9.158;2023-08-06T12:02:55;3.10;;;2.30;;
14015;SDS011;7083;48.854;9.158;2023-08-06T12:05:28;2.37;;;2.27;;
14015;SDS011;7083;48.854;9.158;2023-08-06T12:07:56;2.30;;;2.10;;
14015;SDS011;7083;48.854;9.158;2023-08-06T12:10:24;2.13;;;2.03;;
14015;SDS011;7083;48.854;9.158;2023-08-06T12:12:52;2.50;;;2.37;;
14015;SDS011;7083;48.854;9.158;2023-08-06T12:15:19;3.97;;;2.90;;
14015;SDS011;7083;48.854;9.158;2023-08-06T12:17:46;2.87;;;2.77;;
14015;SDS011;7083;48.854;9.158;2023-08-06T12:20:13;2.77;;;2.57;;
14015;SDS011;7083;48.854;9.158;2023-08-06T12:22:41;2.73;;;2.53;;
14015;SDS011;7083;48.854;9.158;2023-08-06T12:25:08;2.30;;;2.20;;
14015;SDS011;7083;48.854;9.158;2023-08-06T12:27:37;2.70;;;2.50;;
14015;SDS011;7083;48.854;9.158;2023-08-06T12:30:05;3.87;;;3.00;;
14015;SDS011;7083;48.854;9.158;2023-08-06T12:32:33;4.13;;;3.60;;
14015;SDS011;7083;48.854;9.158;2023-08-06T12:35:00;2.73;;;2.63;;
14015;SDS011;7083;48.854;9.158;2023-08-06T12:37:28;4.17;;;2.87;;
14015;SDS011;7083;48.854;9.158;2023-08-06T12:39:57;3.70;;;2.63;;
14015;SDS011;7083;48.854;9.158;2023-08-06T12:42:23;3.90;;;2.73;;
14015;SDS011;7083;48.854;9.158;2023-08-06T12:44:50;2.40;;;2.30;;
14015;SDS011;7083;48.854;9.158;2023-08-06T12:47:17;2.20;;;2.00;;
14015;SDS011;7083;48.854;9.158;2023-08-06T12:49:44;3.03;;;2.73;;
14015;SDS011;7083;48.854;9.158;2023-08-06T12:52:11;2.07;;;1.97;;
14015;SDS011;7083;48.854;9.158;2023-08-06T12:54:40;16.77;;;2.50;;
14015;SDS011;7083;48.854;9.158;2023-08-06T12:57:08;1.93;;;1.83;;
14015;SDS011;7083;48.854;9.158;2023-08-06T12:59:35;2.03;;;1.93;;
14015;SDS011;7083;48.854;9.158;2023-08-06T13:02:02;2.07;;;1.90;;
14015;SDS011;7083;48.854;9.158;2023-08-06T13:04:29;1.80;;;1.70;;
14015;SDS011;7083;48.854;9.158;2023-08-06T13:06:56;2.53;;;1.67;;
14015;SDS011;7083;48.854;9.158;2023-08-06T13:09:22;1.87;;;1.77;;
14015;SDS011;7083;48.854;9.158;2023-08-06T13:11:49;2.20;;;2.10;;
14015;SDS011;7083;48.854;9.158;2023-08-06T13:14:17;2.20;;;1.97;;
14015;SDS011;7083;48.854;9.158;2023-08-06T13:16:44;2.33;;;1.87;;
14015;SDS011;7083;48.854;9.158;2023-08-06T13:19:13;1.73;;;1.53;;
14015;SDS011;7083;48.854;9.158;2023-08-06T13:21:58;2.30;;;2.10;;
14015;SDS011;7083;48.854;9.158;2023-08-06T13:24:27;1.70;;;1.60;;
14015;SDS011;7083;48.854;9.158;2023-08-06T13:26:54;2.03;;;1.93;;
14015;SDS011;7083;48.854;9.158;2023-08-06T13:29:22;1.37;;;1.27;;
14015;SDS011;7083;48.854;9.158;2023-08-06T13:31:48;2.97;;;1.87;;
14015;SDS011;7083;48.854;9.158;2023-08-06T13:34:15;1.07;;;1.07;;
14015;SDS011;7083;48.854;9.158;2023-08-06T13:36:42;1.10;;;1.10;;
14015;SDS011;7083;48.854;9.158;2023-08-06T13:39:09;1.30;;;1.30;;
14015;SDS011;7083;48.854;9.158;2023-08-06T13:41:37;1.20;;;1.10;;
14015;SDS011;7083;48.854;9.158;2023-08-06T13:44:03;1.47;;;1.37;;
14015;SDS011;7083;48.854;9.158;2023-08-06T13:46:31;1.23;;;1.23;;
14015;SDS011;7083;48.854;9.158;2023-08-06T13:48:58;1.00;;;0.90;;
14015;SDS011;7083;48.854;9.158;2023-08-06T13:51:25;0.77;;;0.77;;
14015;SDS011;7083;48.854;9.158;2023-08-06T13:53:51;1.10;;;1.10;;
14015;SDS011;7083;48.854;9.158;2023-08-06T13:56:19;1.10;;;1.10;;
14015;SDS011;7083;48.854;9.158;2023-08-06T13:58:46;0.90;;;0.90;;
14015;SDS011;7083;48.854;9.158;2023-08-06T14:01:12;1.03;;;1.03;;
14015;SDS011;7083;48.854;9.158;2023-08-06T14:03:40;1.10;;;1.10;;
14015;SDS011;7083;48.854;9.158;2023-08-06T14:06:07;1.23;;;1.10;;
14015;SDS011;7083;48.854;9.158;2023-08-06T14:08:34;3.00;;;1.00;;
14015;SDS011;7083;48.854;9.158;2023-08-06T14:11:00;1.70;;;1.20;;
14015;SDS011;7083;48.854;9.158;2023-08-06T14:13:27;1.97;;;0.90;;
14015;SDS011;7083;48.854;9.158;2023-08-06T14:15:54;1.10;;;1.10;;
14015;SDS011;7083;48.854;9.158;2023-08-06T14:18:20;1.20;;;1.20;;
14015;SDS011;7083;48.854;9.158;2023-08-06T14:20:48;1.30;;;1.20;;
14015;SDS011;7083;48.854;9.158;2023-08-06T14:23:15;3.40;;;1.20;;
14015;SDS011;7083;48.854;9.158;2023-08-06T14:25:42;1.00;;;1.00;;
14015;SDS011;7083;48.854;9.158;2023-08-06T14:28:08;1.73;;;1.60;;
14015;SDS011;7083;48.854;9.158;2023-08-06T14:30:36;1.63;;;1.57;;
14015;SDS011;7083;48.854;9.158;2023-08-06T14:33:02;1.80;;;1.63;;
14015;SDS011;7083;48.854;9.158;2023-08-06T14:35:29;1.10;;;1.10;;
14015;SDS011;7083;48.854;9.158;2023-08-06T14:37:57;3.00;;;1.53;;
14015;SDS011;7083;48.854;9.158;2023-08-06T14:40:24;2.00;;;1.57;;
14015;SDS011;7083;48.854;9.158;2023-08-06T14:42:53;1.27;;;1.00;;
14015;SDS011;7083;48.854;9.158;2023-08-06T14:45:20;1.20;;;1.20;;
14015;SDS011;7083;48.854;9.158;2023-08-06T14:47:46;1.53;;;1.43;;
14015;SDS011;7083;48.854;9.158;2023-08-06T14:50:13;1.70;;;1.60;;
14015;SDS011;7083;48.854;9.158;2023-08-06T14:52:40;1.20;;;1.20;;
14015;SDS011;7083;48.854;9.158;2023-08-06T14:55:08;2.30;;;1.50;;
14015;SDS011;7083;48.854;9.158;2023-08-06T14:57:35;1.37;;;1.20;;
14015;SDS011;7083;48.854;9.158;2023-08-06T15:00:01;1.10;;;1.10;;
14015;SDS011;7083;48.854;9.158;2023-08-06T15:02:28;1.20;;;1.20;;